Terminal Aerodrome Forecast
Issued by NWS Mt. Holly, NJ

Home | Current Version | Previous Version | Text Only | Print | Product List | Glossary On
Versions: 1 2 3 4 5 6 7 8 9 10 11 12 13 14 15 16
000
FTUS41 KPHI 210535
TAFACY
TAF
KACY 210535Z 2106/2206 22006KT P6SM BKN250
     FM210900 26006KT P6SM FEW250
     FM211200 30007KT P6SM FEW060
     FM211500 26009KT P6SM SCT060
     FM211900 23009KT P6SM SCT060
     FM220300 24004KT P6SM FEW250=

USA.gov is the U.S. government's official web portal to all federal, state and local government web resources and services.